Montville, Connecticut
Current Conditions -  °F | °C
As of 12:56 AM on Sunday 23 Nov 2014 (Local Time) from KGON Reporting Station
Scattered Clouds Scattered Clouds  
Wind Chill: 38°   Ceiling: Unl
Heat Index: 45°   Visibility: 7mi
Dew Point: 29°   Wind: 16mph
Humidity: 53%   Direction: 240°WSW
Pressure: 30.15"   Gusts: 32mph
Location:  41.45°N, 72.14°W
Report Text: KGON 230556Z AUTO 24014G28KT 7SM SCT070 SCT120 07/M02 A3015 RMK AO2 PK WND 24029/0536 SLP210 T00721017 10072 20067 58003
Loading
Personal Weather Stations






























Interactive Weather Map New forecast layout! Learn more

10-Day Weather Forecast

Advertisements
Track Severe Weather on mobile